Terminal Aerodrome Forecast
Issued by NWS

Home | Current Version | Previous Version | Text Only | Print | Product List | Glossary On
Versions: 1 2 3 4 5 6 7 8 9 10 11 12 13 14 15 16 17
000
FTUS41 KBTV 220200 AAA
TAFMSS
TAF AMD
KMSS 220210Z 2202/2224 05006KT P6SM VCSH OVC050
     FM220700 06006KT 4SM BR OVC025
     FM221300 07008KT P6SM BKN040=

USA.gov is the U.S. government's official web portal to all federal, state and local government web resources and services.